sensor_id;sensor_type;location;lat;lon;timestamp;P1;durP1;ratioP1;P2;durP2;ratioP2
21258;SDS011;10787;53.364;-1.480;2022-10-16T00:02:05;5.63;;;1.20;;
21258;SDS011;10787;53.364;-1.480;2022-10-16T00:04:31;5.37;;;1.27;;
21258;SDS011;10787;53.364;-1.480;2022-10-16T00:06:57;6.37;;;1.20;;
21258;SDS011;10787;53.364;-1.480;2022-10-16T00:09:23;8.30;;;1.60;;
21258;SDS011;10787;53.364;-1.480;2022-10-16T00:11:49;5.50;;;1.20;;
21258;SDS011;10787;53.364;-1.480;2022-10-16T00:14:15;6.80;;;1.30;;
21258;SDS011;10787;53.364;-1.480;2022-10-16T00:16:41;6.90;;;1.47;;
21258;SDS011;10787;53.364;-1.480;2022-10-16T00:19:07;7.47;;;1.27;;
21258;SDS011;10787;53.364;-1.480;2022-10-16T00:21:35;6.20;;;1.40;;
21258;SDS011;10787;53.364;-1.480;2022-10-16T00:24:06;7.73;;;1.60;;
21258;SDS011;10787;53.364;-1.480;2022-10-16T00:26:36;7.13;;;1.60;;
21258;SDS011;10787;53.364;-1.480;2022-10-16T00:29:03;5.37;;;1.70;;
21258;SDS011;10787;53.364;-1.480;2022-10-16T00:31:29;10.93;;;1.70;;
21258;SDS011;10787;53.364;-1.480;2022-10-16T00:33:55;7.30;;;1.57;;
21258;SDS011;10787;53.364;-1.480;2022-10-16T00:36:22;8.67;;;2.03;;
21258;SDS011;10787;53.364;-1.480;2022-10-16T00:38:50;7.17;;;1.63;;
21258;SDS011;10787;53.364;-1.480;2022-10-16T00:41:18;9.20;;;1.77;;
21258;SDS011;10787;53.364;-1.480;2022-10-16T00:43:46;8.73;;;1.90;;
21258;SDS011;10787;53.364;-1.480;2022-10-16T00:48:39;9.03;;;1.50;;
21258;SDS011;10787;53.364;-1.480;2022-10-16T00:51:07;8.47;;;1.33;;
21258;SDS011;10787;53.364;-1.480;2022-10-16T00:53:33;9.33;;;1.80;;
21258;SDS011;10787;53.364;-1.480;2022-10-16T00:56:00;8.27;;;1.70;;
21258;SDS011;10787;53.364;-1.480;2022-10-16T00:58:27;11.93;;;2.07;;
21258;SDS011;10787;53.364;-1.480;2022-10-16T01:00:53;8.30;;;1.63;;
21258;SDS011;10787;53.364;-1.480;2022-10-16T01:03:52;9.10;;;1.67;;
21258;SDS011;10787;53.364;-1.480;2022-10-16T01:17:34;8.10;;;1.70;;
21258;SDS011;10787;53.364;-1.480;2022-10-16T01:28:24;8.60;;;1.50;;
21258;SDS011;10787;53.364;-1.480;2022-10-16T01:30:58;9.27;;;1.50;;
21258;SDS011;10787;53.364;-1.480;2022-10-16T01:33:31;7.20;;;1.50;;
21258;SDS011;10787;53.364;-1.480;2022-10-16T01:36:05;8.43;;;1.47;;
21258;SDS011;10787;53.364;-1.480;2022-10-16T01:38:37;5.17;;;1.43;;
21258;SDS011;10787;53.364;-1.480;2022-10-16T01:41:26;6.13;;;1.60;;
21258;SDS011;10787;53.364;-1.480;2022-10-16T01:43:58;7.47;;;1.80;;
21258;SDS011;10787;53.364;-1.480;2022-10-16T01:46:28;8.43;;;1.53;;
21258;SDS011;10787;53.364;-1.480;2022-10-16T01:48:57;7.73;;;1.40;;
21258;SDS011;10787;53.364;-1.480;2022-10-16T01:51:26;7.20;;;1.50;;
21258;SDS011;10787;53.364;-1.480;2022-10-16T01:53:55;7.70;;;1.43;;
21258;SDS011;10787;53.364;-1.480;2022-10-16T01:56:24;9.80;;;1.67;;
21258;SDS011;10787;53.364;-1.480;2022-10-16T01:58:55;7.90;;;1.60;;
21258;SDS011;10787;53.364;-1.480;2022-10-16T02:01:29;7.10;;;1.80;;
21258;SDS011;10787;53.364;-1.480;2022-10-16T02:04:10;5.43;;;1.10;;
21258;SDS011;10787;53.364;-1.480;2022-10-16T02:06:42;8.03;;;1.23;;
21258;SDS011;10787;53.364;-1.480;2022-10-16T02:09:08;9.00;;;1.63;;
21258;SDS011;10787;53.364;-1.480;2022-10-16T02:11:34;4.90;;;1.20;;
21258;SDS011;10787;53.364;-1.480;2022-10-16T02:14:06;5.90;;;1.37;;
21258;SDS011;10787;53.364;-1.480;2022-10-16T02:16:39;6.20;;;1.30;;
21258;SDS011;10787;53.364;-1.480;2022-10-16T02:19:07;6.67;;;1.47;;
21258;SDS011;10787;53.364;-1.480;2022-10-16T02:24:45;5.00;;;1.20;;
21258;SDS011;10787;53.364;-1.480;2022-10-16T02:27:03;6.30;;;1.20;;
21258;SDS011;10787;53.364;-1.480;2022-10-16T02:29:35;6.17;;;1.03;;
21258;SDS011;10787;53.364;-1.480;2022-10-16T02:32:06;7.73;;;1.23;;
21258;SDS011;10787;53.364;-1.480;2022-10-16T02:34:33;4.23;;;1.00;;
21258;SDS011;10787;53.364;-1.480;2022-10-16T02:37:01;7.37;;;1.40;;
21258;SDS011;10787;53.364;-1.480;2022-10-16T02:39:29;8.07;;;1.20;;
21258;SDS011;10787;53.364;-1.480;2022-10-16T02:41:55;9.63;;;1.30;;
21258;SDS011;10787;53.364;-1.480;2022-10-16T02:44:21;5.07;;;1.07;;
21258;SDS011;10787;53.364;-1.480;2022-10-16T02:46:47;6.37;;;1.13;;
21258;SDS011;10787;53.364;-1.480;2022-10-16T02:49:13;5.77;;;1.17;;
21258;SDS011;10787;53.364;-1.480;2022-10-16T02:51:39;4.07;;;1.03;;
21258;SDS011;10787;53.364;-1.480;2022-10-16T02:54:04;3.00;;;0.90;;
21258;SDS011;10787;53.364;-1.480;2022-10-16T02:56:30;5.00;;;1.10;;
21258;SDS011;10787;53.364;-1.480;2022-10-16T02:58:56;3.93;;;0.90;;
21258;SDS011;10787;53.364;-1.480;2022-10-16T03:01:22;4.83;;;1.07;;
21258;SDS011;10787;53.364;-1.480;2022-10-16T03:03:49;4.60;;;0.90;;
21258;SDS011;10787;53.364;-1.480;2022-10-16T03:06:14;3.83;;;0.90;;
21258;SDS011;10787;53.364;-1.480;2022-10-16T03:08:42;4.67;;;0.90;;
21258;SDS011;10787;53.364;-1.480;2022-10-16T03:11:08;4.87;;;1.00;;
21258;SDS011;10787;53.364;-1.480;2022-10-16T03:13:34;6.27;;;1.40;;
21258;SDS011;10787;53.364;-1.480;2022-10-16T03:15:59;3.80;;;1.10;;
21258;SDS011;10787;53.364;-1.480;2022-10-16T03:18:25;4.67;;;1.00;;
21258;SDS011;10787;53.364;-1.480;2022-10-16T03:20:51;4.50;;;1.03;;
21258;SDS011;10787;53.364;-1.480;2022-10-16T03:23:17;4.93;;;1.20;;
21258;SDS011;10787;53.364;-1.480;2022-10-16T03:25:42;4.13;;;1.10;;
21258;SDS011;10787;53.364;-1.480;2022-10-16T03:28:08;5.53;;;1.27;;
21258;SDS011;10787;53.364;-1.480;2022-10-16T03:30:34;4.83;;;1.07;;
21258;SDS011;10787;53.364;-1.480;2022-10-16T03:33:00;4.23;;;1.00;;
21258;SDS011;10787;53.364;-1.480;2022-10-16T03:35:25;4.43;;;1.00;;
21258;SDS011;10787;53.364;-1.480;2022-10-16T03:37:51;3.57;;;1.00;;
21258;SDS011;10787;53.364;-1.480;2022-10-16T03:40:18;6.13;;;1.20;;
21258;SDS011;10787;53.364;-1.480;2022-10-16T03:42:44;5.27;;;1.10;;
21258;SDS011;10787;53.364;-1.480;2022-10-16T03:45:10;4.87;;;0.90;;
21258;SDS011;10787;53.364;-1.480;2022-10-16T03:47:36;3.50;;;1.00;;
21258;SDS011;10787;53.364;-1.480;2022-10-16T03:50:02;4.30;;;1.07;;
21258;SDS011;10787;53.364;-1.480;2022-10-16T03:52:29;3.67;;;1.07;;
21258;SDS011;10787;53.364;-1.480;2022-10-16T03:54:54;2.97;;;0.97;;
21258;SDS011;10787;53.364;-1.480;2022-10-16T03:57:20;3.70;;;1.10;;
21258;SDS011;10787;53.364;-1.480;2022-10-16T03:59:46;4.00;;;1.03;;
21258;SDS011;10787;53.364;-1.480;2022-10-16T04:02:13;8.03;;;1.10;;
21258;SDS011;10787;53.364;-1.480;2022-10-16T04:04:39;3.07;;;1.13;;
21258;SDS011;10787;53.364;-1.480;2022-10-16T04:07:05;6.53;;;1.10;;
21258;SDS011;10787;53.364;-1.480;2022-10-16T04:09:31;4.90;;;1.10;;
21258;SDS011;10787;53.364;-1.480;2022-10-16T04:11:56;4.03;;;1.00;;
21258;SDS011;10787;53.364;-1.480;2022-10-16T04:14:22;4.93;;;1.10;;
21258;SDS011;10787;53.364;-1.480;2022-10-16T04:16:48;4.53;;;1.23;;
21258;SDS011;10787;53.364;-1.480;2022-10-16T04:19:13;4.60;;;1.20;;
21258;SDS011;10787;53.364;-1.480;2022-10-16T04:21:39;5.87;;;1.20;;
21258;SDS011;10787;53.364;-1.480;2022-10-16T04:24:05;5.43;;;1.43;;
21258;SDS011;10787;53.364;-1.480;2022-10-16T04:26:31;3.23;;;1.00;;
21258;SDS011;10787;53.364;-1.480;2022-10-16T04:28:57;5.73;;;1.37;;
21258;SDS011;10787;53.364;-1.480;2022-10-16T04:31:24;5.10;;;0.90;;
21258;SDS011;10787;53.364;-1.480;2022-10-16T04:33:50;5.90;;;1.17;;
21258;SDS011;10787;53.364;-1.480;2022-10-16T04:36:15;3.13;;;0.90;;
21258;SDS011;10787;53.364;-1.480;2022-10-16T04:38:42;4.17;;;1.10;;
21258;SDS011;10787;53.364;-1.480;2022-10-16T04:41:07;4.33;;;1.00;;
21258;SDS011;10787;53.364;-1.480;2022-10-16T04:43:33;3.33;;;1.03;;
21258;SDS011;10787;53.364;-1.480;2022-10-16T04:45:59;5.77;;;1.17;;
21258;SDS011;10787;53.364;-1.480;2022-10-16T04:48:26;3.87;;;1.00;;
21258;SDS011;10787;53.364;-1.480;2022-10-16T04:50:52;3.53;;;1.10;;
21258;SDS011;10787;53.364;-1.480;2022-10-16T04:53:17;5.17;;;1.10;;
21258;SDS011;10787;53.364;-1.480;2022-10-16T04:55:43;5.30;;;1.10;;
21258;SDS011;10787;53.364;-1.480;2022-10-16T04:58:09;4.87;;;1.30;;
21258;SDS011;10787;53.364;-1.480;2022-10-16T05:00:35;3.33;;;0.90;;
21258;SDS011;10787;53.364;-1.480;2022-10-16T05:03:02;5.60;;;1.00;;
21258;SDS011;10787;53.364;-1.480;2022-10-16T05:05:31;5.60;;;0.93;;
21258;SDS011;10787;53.364;-1.480;2022-10-16T05:07:57;6.10;;;1.20;;
21258;SDS011;10787;53.364;-1.480;2022-10-16T05:10:23;5.37;;;1.10;;
21258;SDS011;10787;53.364;-1.480;2022-10-16T05:12:49;5.10;;;0.93;;
21258;SDS011;10787;53.364;-1.480;2022-10-16T05:15:16;4.90;;;1.17;;
21258;SDS011;10787;53.364;-1.480;2022-10-16T05:17:42;7.27;;;1.20;;
21258;SDS011;10787;53.364;-1.480;2022-10-16T05:20:08;7.30;;;1.20;;
21258;SDS011;10787;53.364;-1.480;2022-10-16T05:22:34;4.87;;;0.93;;
21258;SDS011;10787;53.364;-1.480;2022-10-16T05:24:59;4.40;;;1.07;;
21258;SDS011;10787;53.364;-1.480;2022-10-16T05:27:25;3.80;;;1.00;;
21258;SDS011;10787;53.364;-1.480;2022-10-16T05:29:51;5.23;;;1.10;;
21258;SDS011;10787;53.364;-1.480;2022-10-16T05:32:18;3.53;;;1.00;;
21258;SDS011;10787;53.364;-1.480;2022-10-16T05:34:45;7.37;;;0.93;;
21258;SDS011;10787;53.364;-1.480;2022-10-16T05:37:11;2.93;;;0.90;;
21258;SDS011;10787;53.364;-1.480;2022-10-16T05:39:37;6.57;;;1.47;;
21258;SDS011;10787;53.364;-1.480;2022-10-16T05:42:04;4.40;;;0.80;;
21258;SDS011;10787;53.364;-1.480;2022-10-16T05:44:30;6.07;;;1.07;;
21258;SDS011;10787;53.364;-1.480;2022-10-16T05:46:57;5.37;;;1.17;;
21258;SDS011;10787;53.364;-1.480;2022-10-16T05:49:23;4.43;;;1.00;;
21258;SDS011;10787;53.364;-1.480;2022-10-16T05:51:49;5.17;;;0.87;;
21258;SDS011;10787;53.364;-1.480;2022-10-16T05:54:15;4.83;;;0.90;;
21258;SDS011;10787;53.364;-1.480;2022-10-16T05:56:41;5.87;;;1.33;;
21258;SDS011;10787;53.364;-1.480;2022-10-16T05:59:07;3.77;;;1.03;;
21258;SDS011;10787;53.364;-1.480;2022-10-16T06:01:33;5.43;;;1.40;;
21258;SDS011;10787;53.364;-1.480;2022-10-16T06:04:00;4.57;;;1.30;;
21258;SDS011;10787;53.364;-1.480;2022-10-16T06:06:26;4.00;;;0.93;;
21258;SDS011;10787;53.364;-1.480;2022-10-16T06:08:53;2.53;;;1.17;;
21258;SDS011;10787;53.364;-1.480;2022-10-16T06:11:22;3.07;;;1.00;;
21258;SDS011;10787;53.364;-1.480;2022-10-16T06:13:54;4.77;;;1.07;;
21258;SDS011;10787;53.364;-1.480;2022-10-16T06:16:25;3.67;;;0.90;;
21258;SDS011;10787;53.364;-1.480;2022-10-16T06:18:52;3.10;;;1.00;;
21258;SDS011;10787;53.364;-1.480;2022-10-16T06:21:20;3.23;;;0.83;;
21258;SDS011;10787;53.364;-1.480;2022-10-16T06:23:47;3.80;;;0.80;;
21258;SDS011;10787;53.364;-1.480;2022-10-16T06:26:14;5.67;;;0.93;;
21258;SDS011;10787;53.364;-1.480;2022-10-16T06:28:42;6.53;;;0.90;;
21258;SDS011;10787;53.364;-1.480;2022-10-16T06:31:09;4.53;;;0.93;;
21258;SDS011;10787;53.364;-1.480;2022-10-16T06:33:36;2.33;;;0.90;;
21258;SDS011;10787;53.364;-1.480;2022-10-16T06:38:36;3.47;;;0.87;;
21258;SDS011;10787;53.364;-1.480;2022-10-16T06:41:02;5.90;;;0.80;;
21258;SDS011;10787;53.364;-1.480;2022-10-16T06:43:29;3.93;;;0.80;;
21258;SDS011;10787;53.364;-1.480;2022-10-16T06:46:01;3.07;;;0.90;;
21258;SDS011;10787;53.364;-1.480;2022-10-16T06:48:29;2.23;;;0.70;;
21258;SDS011;10787;53.364;-1.480;2022-10-16T06:53:34;4.90;;;0.80;;
21258;SDS011;10787;53.364;-1.480;2022-10-16T06:58:34;4.00;;;1.10;;
21258;SDS011;10787;53.364;-1.480;2022-10-16T07:01:00;1.97;;;0.80;;
21258;SDS011;10787;53.364;-1.480;2022-10-16T07:03:26;5.33;;;1.00;;
21258;SDS011;10787;53.364;-1.480;2022-10-16T07:05:52;5.07;;;1.03;;
21258;SDS011;10787;53.364;-1.480;2022-10-16T07:08:18;5.00;;;1.00;;
21258;SDS011;10787;53.364;-1.480;2022-10-16T07:10:44;2.70;;;1.07;;
21258;SDS011;10787;53.364;-1.480;2022-10-16T07:13:10;2.93;;;0.93;;
21258;SDS011;10787;53.364;-1.480;2022-10-16T07:15:38;3.83;;;0.90;;
21258;SDS011;10787;53.364;-1.480;2022-10-16T07:18:05;2.57;;;1.00;;
21258;SDS011;10787;53.364;-1.480;2022-10-16T07:20:32;3.87;;;0.90;;
21258;SDS011;10787;53.364;-1.480;2022-10-16T07:22:58;6.97;;;1.07;;
21258;SDS011;10787;53.364;-1.480;2022-10-16T07:25:24;3.77;;;1.10;;
21258;SDS011;10787;53.364;-1.480;2022-10-16T07:27:51;4.60;;;1.10;;
21258;SDS011;10787;53.364;-1.480;2022-10-16T07:30:16;5.90;;;1.50;;
21258;SDS011;10787;53.364;-1.480;2022-10-16T07:32:42;4.03;;;1.10;;
21258;SDS011;10787;53.364;-1.480;2022-10-16T07:35:08;3.07;;;1.07;;
21258;SDS011;10787;53.364;-1.480;2022-10-16T07:37:34;6.50;;;1.20;;
21258;SDS011;10787;53.364;-1.480;2022-10-16T07:40:00;6.03;;;1.20;;
21258;SDS011;10787;53.364;-1.480;2022-10-16T07:42:26;4.53;;;1.10;;
21258;SDS011;10787;53.364;-1.480;2022-10-16T07:44:52;2.20;;;0.90;;
21258;SDS011;10787;53.364;-1.480;2022-10-16T07:47:18;4.20;;;1.00;;
21258;SDS011;10787;53.364;-1.480;2022-10-16T07:49:44;4.33;;;0.93;;
21258;SDS011;10787;53.364;-1.480;2022-10-16T07:52:10;5.23;;;1.00;;
21258;SDS011;10787;53.364;-1.480;2022-10-16T07:54:35;2.17;;;0.90;;
21258;SDS011;10787;53.364;-1.480;2022-10-16T07:57:02;4.90;;;1.87;;
21258;SDS011;10787;53.364;-1.480;2022-10-16T07:59:28;3.57;;;0.90;;
21258;SDS011;10787;53.364;-1.480;2022-10-16T08:01:54;5.43;;;1.20;;
21258;SDS011;10787;53.364;-1.480;2022-10-16T08:04:20;5.20;;;1.30;;
21258;SDS011;10787;53.364;-1.480;2022-10-16T08:06:45;5.67;;;1.10;;
21258;SDS011;10787;53.364;-1.480;2022-10-16T08:09:11;4.27;;;1.00;;
21258;SDS011;10787;53.364;-1.480;2022-10-16T08:11:37;3.33;;;0.87;;
21258;SDS011;10787;53.364;-1.480;2022-10-16T08:14:03;4.13;;;1.00;;
21258;SDS011;10787;53.364;-1.480;2022-10-16T08:16:29;4.30;;;1.00;;
21258;SDS011;10787;53.364;-1.480;2022-10-16T08:18:55;6.50;;;0.80;;
21258;SDS011;10787;53.364;-1.480;2022-10-16T08:21:21;4.53;;;1.00;;
21258;SDS011;10787;53.364;-1.480;2022-10-16T08:23:48;3.83;;;0.90;;
21258;SDS011;10787;53.364;-1.480;2022-10-16T08:26:15;4.50;;;1.00;;
21258;SDS011;10787;53.364;-1.480;2022-10-16T08:28:42;2.60;;;0.90;;
21258;SDS011;10787;53.364;-1.480;2022-10-16T08:31:14;7.07;;;1.10;;
21258;SDS011;10787;53.364;-1.480;2022-10-16T08:33:41;3.83;;;0.93;;
21258;SDS011;10787;53.364;-1.480;2022-10-16T08:36:08;4.70;;;0.90;;
21258;SDS011;10787;53.364;-1.480;2022-10-16T08:38:35;5.17;;;1.00;;
21258;SDS011;10787;53.364;-1.480;2022-10-16T08:41:20;4.80;;;1.00;;
21258;SDS011;10787;53.364;-1.480;2022-10-16T08:49:33;3.90;;;0.83;;
21258;SDS011;10787;53.364;-1.480;2022-10-16T08:51:59;3.97;;;1.00;;
21258;SDS011;10787;53.364;-1.480;2022-10-16T08:54:29;4.33;;;1.23;;
21258;SDS011;10787;53.364;-1.480;2022-10-16T08:57:24;4.10;;;1.30;;
21258;SDS011;10787;53.364;-1.480;2022-10-16T08:59:52;5.40;;;1.40;;
21258;SDS011;10787;53.364;-1.480;2022-10-16T09:02:31;5.57;;;1.70;;
21258;SDS011;10787;53.364;-1.480;2022-10-16T09:10:55;5.97;;;1.10;;
21258;SDS011;10787;53.364;-1.480;2022-10-16T09:13:29;4.43;;;1.07;;
21258;SDS011;10787;53.364;-1.480;2022-10-16T09:21:43;5.37;;;1.33;;
21258;SDS011;10787;53.364;-1.480;2022-10-16T09:26:38;4.30;;;1.07;;
21258;SDS011;10787;53.364;-1.480;2022-10-16T09:29:04;4.77;;;1.07;;
21258;SDS011;10787;53.364;-1.480;2022-10-16T09:31:30;4.73;;;1.13;;
21258;SDS011;10787;53.364;-1.480;2022-10-16T09:33:58;6.00;;;1.00;;
21258;SDS011;10787;53.364;-1.480;2022-10-16T09:36:27;4.23;;;0.90;;
21258;SDS011;10787;53.364;-1.480;2022-10-16T09:39:07;6.77;;;1.30;;
21258;SDS011;10787;53.364;-1.480;2022-10-16T09:41:35;4.03;;;1.07;;
21258;SDS011;10787;53.364;-1.480;2022-10-16T09:44:03;4.90;;;1.10;;
21258;SDS011;10787;53.364;-1.480;2022-10-16T09:46:42;4.57;;;1.00;;
21258;SDS011;10787;53.364;-1.480;2022-10-16T09:49:21;3.47;;;1.10;;
21258;SDS011;10787;53.364;-1.480;2022-10-16T09:51:49;5.57;;;1.00;;
21258;SDS011;10787;53.364;-1.480;2022-10-16T09:56:43;4.67;;;1.00;;
21258;SDS011;10787;53.364;-1.480;2022-10-16T10:04:05;3.20;;;1.00;;
21258;SDS011;10787;53.364;-1.480;2022-10-16T10:06:36;3.77;;;1.00;;
21258;SDS011;10787;53.364;-1.480;2022-10-16T10:09:25;2.77;;;1.00;;
21258;SDS011;10787;53.364;-1.480;2022-10-16T10:11:58;5.03;;;1.40;;
21258;SDS011;10787;53.364;-1.480;2022-10-16T10:14:37;7.07;;;1.10;;
21258;SDS011;10787;53.364;-1.480;2022-10-16T10:19:48;3.80;;;1.57;;
21258;SDS011;10787;53.364;-1.480;2022-10-16T10:22:31;3.23;;;0.90;;
21258;SDS011;10787;53.364;-1.480;2022-10-16T10:25:10;4.40;;;0.90;;
21258;SDS011;10787;53.364;-1.480;2022-10-16T10:38:49;3.63;;;0.80;;
21258;SDS011;10787;53.364;-1.480;2022-10-16T10:44:03;5.57;;;0.80;;
21258;SDS011;10787;53.364;-1.480;2022-10-16T10:46:50;3.60;;;0.80;;
21258;SDS011;10787;53.364;-1.480;2022-10-16T10:52:31;2.97;;;0.70;;
21258;SDS011;10787;53.364;-1.480;2022-10-16T10:55:40;4.60;;;0.90;;
21258;SDS011;10787;53.364;-1.480;2022-10-16T11:06:33;2.87;;;0.80;;
21258;SDS011;10787;53.364;-1.480;2022-10-16T11:19:58;4.63;;;0.90;;
21258;SDS011;10787;53.364;-1.480;2022-10-16T11:22:38;2.97;;;0.73;;
21258;SDS011;10787;53.364;-1.480;2022-10-16T11:33:23;2.97;;;0.90;;
21258;SDS011;10787;53.364;-1.480;2022-10-16T11:38:55;4.22;;;1.00;;
21258;SDS011;10787;53.364;-1.480;2022-10-16T11:41:26;2.50;;;1.00;;
21258;SDS011;10787;53.364;-1.480;2022-10-16T11:47:08;1.40;;;0.60;;
21258;SDS011;10787;53.364;-1.480;2022-10-16T11:49:46;1.63;;;0.60;;
21258;SDS011;10787;53.364;-1.480;2022-10-16T11:52:32;3.83;;;1.00;;
21258;SDS011;10787;53.364;-1.480;2022-10-16T11:57:46;1.52;;;0.68;;
21258;SDS011;10787;53.364;-1.480;2022-10-16T12:08:34;3.00;;;0.50;;
21258;SDS011;10787;53.364;-1.480;2022-10-16T12:11:07;1.98;;;0.68;;
21258;SDS011;10787;53.364;-1.480;2022-10-16T12:14:04;1.58;;;0.60;;
21258;SDS011;10787;53.364;-1.480;2022-10-16T12:16:51;2.83;;;0.70;;
21258;SDS011;10787;53.364;-1.480;2022-10-16T12:19:19;1.88;;;0.70;;
21258;SDS011;10787;53.364;-1.480;2022-10-16T12:21:46;1.42;;;0.52;;
21258;SDS011;10787;53.364;-1.480;2022-10-16T12:27:05;1.83;;;0.63;;
21258;SDS011;10787;53.364;-1.480;2022-10-16T12:29:54;2.20;;;0.63;;
21258;SDS011;10787;53.364;-1.480;2022-10-16T12:32:44;1.48;;;0.60;;
21258;SDS011;10787;53.364;-1.480;2022-10-16T12:35:19;2.33;;;0.73;;
21258;SDS011;10787;53.364;-1.480;2022-10-16T12:37:47;1.52;;;0.60;;
21258;SDS011;10787;53.364;-1.480;2022-10-16T12:40:14;1.88;;;0.60;;
21258;SDS011;10787;53.364;-1.480;2022-10-16T12:42:51;1.40;;;0.57;;
21258;SDS011;10787;53.364;-1.480;2022-10-16T12:45:31;3.15;;;0.70;;
21258;SDS011;10787;53.364;-1.480;2022-10-16T12:47:59;1.90;;;0.70;;
21258;SDS011;10787;53.364;-1.480;2022-10-16T12:50:34;3.70;;;0.93;;
21258;SDS011;10787;53.364;-1.480;2022-10-16T12:53:03;3.38;;;0.80;;
21258;SDS011;10787;53.364;-1.480;2022-10-16T12:55:45;6.78;;;2.30;;
21258;SDS011;10787;53.364;-1.480;2022-10-16T12:58:46;3.15;;;1.40;;
21258;SDS011;10787;53.364;-1.480;2022-10-16T13:01:40;3.08;;;1.10;;
21258;SDS011;10787;53.364;-1.480;2022-10-16T13:04:35;1.60;;;0.70;;
21258;SDS011;10787;53.364;-1.480;2022-10-16T13:07:23;2.15;;;0.70;;
21258;SDS011;10787;53.364;-1.480;2022-10-16T13:10:20;3.88;;;0.70;;
21258;SDS011;10787;53.364;-1.480;2022-10-16T13:15:26;1.92;;;0.70;;
21258;SDS011;10787;53.364;-1.480;2022-10-16T13:18:01;1.65;;;0.80;;
21258;SDS011;10787;53.364;-1.480;2022-10-16T13:29:00;2.72;;;0.90;;
21258;SDS011;10787;53.364;-1.480;2022-10-16T13:31:26;1.63;;;0.80;;
21258;SDS011;10787;53.364;-1.480;2022-10-16T13:33:55;2.83;;;0.70;;
21258;SDS011;10787;53.364;-1.480;2022-10-16T13:36:26;2.10;;;0.82;;
21258;SDS011;10787;53.364;-1.480;2022-10-16T13:44:39;3.30;;;1.00;;
21258;SDS011;10787;53.364;-1.480;2022-10-16T13:47:27;3.30;;;1.25;;
21258;SDS011;10787;53.364;-1.480;2022-10-16T13:50:00;1.98;;;0.95;;
21258;SDS011;10787;53.364;-1.480;2022-10-16T13:52:32;3.03;;;0.90;;
21258;SDS011;10787;53.364;-1.480;2022-10-16T13:54:58;2.28;;;0.88;;
21258;SDS011;10787;53.364;-1.480;2022-10-16T13:57:24;2.10;;;0.85;;
21258;SDS011;10787;53.364;-1.480;2022-10-16T13:59:50;2.78;;;0.80;;
21258;SDS011;10787;53.364;-1.480;2022-10-16T14:02:26;3.42;;;0.95;;
21258;SDS011;10787;53.364;-1.480;2022-10-16T14:04:54;2.80;;;0.80;;
21258;SDS011;10787;53.364;-1.480;2022-10-16T14:07:26;3.25;;;0.90;;
21258;SDS011;10787;53.364;-1.480;2022-10-16T14:09:55;3.13;;;0.90;;
21258;SDS011;10787;53.364;-1.480;2022-10-16T14:12:25;3.25;;;1.20;;
21258;SDS011;10787;53.364;-1.480;2022-10-16T14:14:52;2.33;;;1.00;;
21258;SDS011;10787;53.364;-1.480;2022-10-16T14:19:54;4.55;;;0.93;;
21258;SDS011;10787;53.364;-1.480;2022-10-16T14:22:33;1.52;;;0.80;;
21258;SDS011;10787;53.364;-1.480;2022-10-16T14:27:44;3.40;;;1.00;;
21258;SDS011;10787;53.364;-1.480;2022-10-16T14:30:21;2.38;;;0.90;;
21258;SDS011;10787;53.364;-1.480;2022-10-16T14:32:55;3.33;;;0.88;;
21258;SDS011;10787;53.364;-1.480;2022-10-16T14:37:59;2.75;;;1.00;;
21258;SDS011;10787;53.364;-1.480;2022-10-16T14:40:27;3.63;;;1.25;;
21258;SDS011;10787;53.364;-1.480;2022-10-16T14:42:55;3.38;;;1.30;;
21258;SDS011;10787;53.364;-1.480;2022-10-16T14:45:22;4.00;;;1.80;;
21258;SDS011;10787;53.364;-1.480;2022-10-16T14:47:55;5.13;;;2.30;;
21258;SDS011;10787;53.364;-1.480;2022-10-16T14:50:23;3.38;;;2.05;;
21258;SDS011;10787;53.364;-1.480;2022-10-16T14:52:48;4.07;;;1.30;;
21258;SDS011;10787;53.364;-1.480;2022-10-16T14:55:15;2.20;;;1.02;;
21258;SDS011;10787;53.364;-1.480;2022-10-16T14:57:42;3.42;;;0.90;;
21258;SDS011;10787;53.364;-1.480;2022-10-16T15:00:16;4.57;;;1.20;;
21258;SDS011;10787;53.364;-1.480;2022-10-16T15:02:49;4.60;;;1.13;;
21258;SDS011;10787;53.364;-1.480;2022-10-16T15:05:22;1.83;;;0.80;;
21258;SDS011;10787;53.364;-1.480;2022-10-16T15:07:51;2.65;;;0.85;;
21258;SDS011;10787;53.364;-1.480;2022-10-16T15:10:22;2.70;;;1.15;;
21258;SDS011;10787;53.364;-1.480;2022-10-16T15:12:49;3.83;;;1.92;;
21258;SDS011;10787;53.364;-1.480;2022-10-16T15:15:32;4.72;;;1.90;;
21258;SDS011;10787;53.364;-1.480;2022-10-16T15:18:18;4.45;;;1.52;;
21258;SDS011;10787;53.364;-1.480;2022-10-16T15:20:47;3.85;;;1.83;;
21258;SDS011;10787;53.364;-1.480;2022-10-16T15:23:15;3.00;;;1.55;;
21258;SDS011;10787;53.364;-1.480;2022-10-16T15:25:47;3.72;;;1.92;;
21258;SDS011;10787;53.364;-1.480;2022-10-16T15:28:17;4.03;;;1.30;;
21258;SDS011;10787;53.364;-1.480;2022-10-16T15:30:45;3.75;;;1.40;;
21258;SDS011;10787;53.364;-1.480;2022-10-16T15:33:12;5.55;;;1.23;;
21258;SDS011;10787;53.364;-1.480;2022-10-16T15:35:40;3.65;;;1.40;;
21258;SDS011;10787;53.364;-1.480;2022-10-16T15:38:11;3.03;;;1.20;;
21258;SDS011;10787;53.364;-1.480;2022-10-16T15:40:39;4.05;;;1.40;;
21258;SDS011;10787;53.364;-1.480;2022-10-16T15:43:05;4.47;;;1.45;;
21258;SDS011;10787;53.364;-1.480;2022-10-16T15:45:32;3.30;;;1.42;;
21258;SDS011;10787;53.364;-1.480;2022-10-16T15:47:58;4.22;;;1.23;;
21258;SDS011;10787;53.364;-1.480;2022-10-16T15:50:24;2.85;;;1.13;;
21258;SDS011;10787;53.364;-1.480;2022-10-16T15:52:50;2.38;;;1.40;;
21258;SDS011;10787;53.364;-1.480;2022-10-16T15:55:16;3.58;;;1.20;;
21258;SDS011;10787;53.364;-1.480;2022-10-16T15:57:43;6.10;;;1.60;;
21258;SDS011;10787;53.364;-1.480;2022-10-16T16:00:14;7.20;;;1.88;;
21258;SDS011;10787;53.364;-1.480;2022-10-16T16:02:43;8.30;;;1.77;;
21258;SDS011;10787;53.364;-1.480;2022-10-16T16:05:14;4.93;;;1.75;;
21258;SDS011;10787;53.364;-1.480;2022-10-16T16:07:40;6.05;;;1.70;;
21258;SDS011;10787;53.364;-1.480;2022-10-16T16:10:07;2.95;;;1.45;;
21258;SDS011;10787;53.364;-1.480;2022-10-16T16:12:34;4.13;;;1.42;;
21258;SDS011;10787;53.364;-1.480;2022-10-16T16:15:01;9.25;;;1.80;;
21258;SDS011;10787;53.364;-1.480;2022-10-16T16:17:28;7.40;;;2.08;;
21258;SDS011;10787;53.364;-1.480;2022-10-16T16:19:56;4.63;;;2.38;;
21258;SDS011;10787;53.364;-1.480;2022-10-16T16:22:22;4.15;;;2.20;;
21258;SDS011;10787;53.364;-1.480;2022-10-16T16:24:48;6.18;;;2.10;;
21258;SDS011;10787;53.364;-1.480;2022-10-16T16:27:15;4.63;;;1.88;;
21258;SDS011;10787;53.364;-1.480;2022-10-16T16:29:40;3.20;;;1.90;;
21258;SDS011;10787;53.364;-1.480;2022-10-16T16:32:06;5.47;;;2.03;;
21258;SDS011;10787;53.364;-1.480;2022-10-16T16:34:32;6.70;;;1.90;;
21258;SDS011;10787;53.364;-1.480;2022-10-16T16:36:59;6.03;;;2.25;;
21258;SDS011;10787;53.364;-1.480;2022-10-16T16:39:24;5.32;;;2.83;;
21258;SDS011;10787;53.364;-1.480;2022-10-16T16:41:51;5.55;;;2.80;;
21258;SDS011;10787;53.364;-1.480;2022-10-16T16:44:17;5.97;;;2.03;;
21258;SDS011;10787;53.364;-1.480;2022-10-16T16:46:43;5.75;;;2.30;;
21258;SDS011;10787;53.364;-1.480;2022-10-16T16:49:12;5.22;;;3.20;;
21258;SDS011;10787;53.364;-1.480;2022-10-16T16:51:39;6.85;;;3.88;;
21258;SDS011;10787;53.364;-1.480;2022-10-16T16:54:06;10.20;;;4.85;;
21258;SDS011;10787;53.364;-1.480;2022-10-16T16:56:32;10.07;;;5.10;;
21258;SDS011;10787;53.364;-1.480;2022-10-16T16:58:59;10.52;;;5.45;;
21258;SDS011;10787;53.364;-1.480;2022-10-16T17:01:25;9.10;;;5.13;;
21258;SDS011;10787;53.364;-1.480;2022-10-16T17:03:53;10.80;;;6.22;;
21258;SDS011;10787;53.364;-1.480;2022-10-16T17:06:21;31.75;;;17.20;;
21258;SDS011;10787;53.364;-1.480;2022-10-16T17:08:48;34.72;;;20.08;;
21258;SDS011;10787;53.364;-1.480;2022-10-16T17:11:16;27.85;;;16.23;;
21258;SDS011;10787;53.364;-1.480;2022-10-16T17:13:43;26.67;;;14.48;;
21258;SDS011;10787;53.364;-1.480;2022-10-16T17:16:09;22.27;;;12.00;;
21258;SDS011;10787;53.364;-1.480;2022-10-16T17:18:36;11.00;;;5.32;;